createdAt,value
2023-04-08T00:00:04.831Z,22.97
2023-04-08T00:00:41.025Z,22.97
2023-04-08T00:01:16.737Z,22.97
2023-04-08T00:01:53.048Z,22.99
2023-04-08T00:02:28.955Z,22.99
2023-04-08T00:03:04.728Z,22.99
2023-04-08T00:03:40.644Z,22.95
2023-04-08T00:04:16.861Z,22.96
2023-04-08T00:04:53.349Z,22.96
2023-04-08T00:05:28.939Z,22.96
2023-04-08T00:06:04.396Z,22.96
2023-04-08T00:06:39.985Z,22.97
2023-04-08T00:07:16.337Z,22.96
2023-04-08T00:07:52.163Z,22.95
2023-04-08T00:08:28.282Z,22.94
2023-04-08T00:09:04.415Z,22.95
2023-04-08T00:09:40.507Z,22.93
2023-04-08T00:10:16.558Z,22.96
2023-04-08T00:10:52.486Z,22.94
2023-04-08T00:11:28.172Z,22.94
2023-04-08T00:12:03.730Z,22.93
2023-04-08T00:12:40.549Z,22.92
2023-04-08T00:13:16.142Z,22.92
2023-04-08T00:13:52.004Z,22.95
2023-04-08T00:14:28.503Z,22.96
2023-04-08T00:15:05.075Z,22.96
2023-04-08T00:15:41.114Z,22.93
2023-04-08T00:16:17.034Z,22.95
2023-04-08T00:16:52.689Z,22.92
2023-04-08T00:17:28.680Z,22.94
2023-04-08T00:18:04.326Z,22.96
2023-04-08T00:18:40.443Z,22.95
2023-04-08T00:19:16.532Z,22.95
2023-04-08T00:19:52.640Z,22.94
2023-04-08T00:20:28.469Z,22.95
2023-04-08T00:21:03.839Z,22.96
2023-04-08T00:21:39.017Z,22.96
2023-04-08T00:22:15.478Z,22.98
2023-04-08T00:22:51.389Z,22.97
2023-04-08T00:23:27.313Z,22.99
2023-04-08T00:24:03.688Z,22.96
2023-04-08T00:24:39.834Z,22.95
2023-04-08T00:25:15.808Z,22.95
2023-04-08T00:25:51.332Z,22.95
2023-04-08T00:26:26.529Z,22.97
2023-04-08T00:27:02.841Z,22.98
2023-04-08T00:27:38.523Z,22.94
2023-04-08T00:28:14.747Z,22.97
2023-04-08T00:28:51.068Z,22.95
2023-04-08T00:29:26.580Z,22.95
2023-04-08T00:30:03.409Z,22.96
2023-04-08T00:30:39.279Z,22.95
2023-04-08T00:31:14.629Z,22.94
2023-04-08T00:31:49.924Z,22.96
2023-04-08T00:32:26.411Z,22.95
2023-04-08T00:33:02.464Z,22.93
2023-04-08T00:33:38.403Z,22.93
2023-04-08T00:34:14.394Z,22.95
2023-04-08T00:34:49.854Z,22.94
2023-04-08T00:35:26.184Z,22.94
2023-04-08T00:36:02.587Z,22.98
2023-04-08T00:36:38.526Z,22.98
2023-04-08T00:37:13.647Z,22.96
2023-04-08T00:37:49.567Z,22.96
2023-04-08T00:38:25.893Z,22.96
2023-04-08T00:39:02.004Z,22.97
2023-04-08T00:39:37.932Z,22.96
2023-04-08T00:40:13.616Z,22.95
2023-04-08T00:40:49.275Z,22.95
2023-04-08T00:41:24.626Z,22.93
2023-04-08T00:42:00.108Z,22.96
2023-04-08T00:42:35.660Z,22.98
2023-04-08T00:43:11.953Z,22.92
2023-04-08T00:43:47.800Z,22.95
2023-04-08T00:44:24.623Z,22.97
2023-04-08T00:45:00.743Z,22.94
2023-04-08T00:45:39.127Z,22.93
2023-04-08T00:46:14.782Z,22.94
2023-04-08T00:46:49.996Z,22.96
2023-04-08T00:47:26.389Z,22.99
2023-04-08T00:48:02.516Z,22.92
2023-04-08T00:48:38.262Z,22.93
2023-04-08T00:49:14.248Z,22.94
2023-04-08T00:49:50.148Z,22.95
2023-04-08T00:50:26.332Z,22.95
2023-04-08T00:51:02.150Z,22.96
2023-04-08T00:51:37.511Z,22.96
2023-04-08T00:52:13.250Z,22.98
2023-04-08T00:52:49.278Z,22.95
2023-04-08T00:53:25.745Z,22.97
2023-04-08T00:54:00.768Z,22.98
2023-04-08T00:54:36.540Z,22.97
2023-04-08T00:55:12.427Z,22.95
2023-04-08T00:55:48.033Z,22.98
2023-04-08T00:56:24.603Z,22.98
2023-04-08T00:57:00.252Z,22.98
2023-04-08T00:57:35.709Z,22.99
2023-04-08T00:58:11.557Z,22.97
2023-04-08T00:58:47.607Z,22.98
2023-04-08T00:59:23.577Z,22.99
2023-04-08T00:59:58.685Z,23.00
2023-04-08T01:00:35.132Z,22.99
2023-04-08T01:01:11.288Z,22.98
2023-04-08T01:01:47.046Z,22.99
2023-04-08T01:02:22.829Z,22.98
2023-04-08T01:02:58.329Z,22.96
2023-04-08T01:03:34.391Z,22.95
2023-04-08T01:04:10.521Z,22.94
2023-04-08T01:04:46.636Z,22.97
2023-04-08T01:05:22.515Z,22.98
2023-04-08T01:05:58.765Z,23.00
2023-04-08T01:06:35.084Z,22.98
2023-04-08T01:07:10.901Z,22.98
2023-04-08T01:07:46.593Z,22.97
2023-04-08T01:08:22.227Z,22.99
2023-04-08T01:08:58.318Z,22.97
2023-04-08T01:09:34.152Z,22.96
2023-04-08T01:10:09.731Z,22.97
2023-04-08T01:10:45.874Z,22.96
2023-04-08T01:11:20.986Z,22.96
2023-04-08T01:11:56.263Z,22.97
2023-04-08T01:12:32.489Z,22.97
2023-04-08T01:13:08.351Z,22.98
2023-04-08T01:13:43.869Z,22.97
2023-04-08T01:14:20.295Z,22.96
2023-04-08T01:14:56.463Z,22.98
2023-04-08T01:15:32.479Z,22.97
2023-04-08T01:16:08.019Z,22.97
2023-04-08T01:16:43.846Z,22.95
2023-04-08T01:17:19.240Z,22.98
2023-04-08T01:17:55.299Z,22.96
2023-04-08T01:18:30.854Z,23.00
2023-04-08T01:19:06.944Z,22.99
2023-04-08T01:19:43.203Z,22.98
2023-04-08T01:20:19.169Z,22.99
2023-04-08T01:20:54.797Z,22.98
2023-04-08T01:21:30.685Z,22.97
2023-04-08T01:22:06.093Z,22.98
2023-04-08T01:22:42.252Z,22.96
2023-04-08T01:23:18.214Z,22.97
2023-04-08T01:23:54.217Z,22.99
2023-04-08T01:24:29.819Z,22.97
2023-04-08T01:25:05.825Z,22.97
2023-04-08T01:25:41.723Z,22.96
2023-04-08T01:26:17.263Z,22.96
2023-04-08T01:26:53.523Z,22.96
2023-04-08T01:27:28.976Z,22.97
2023-04-08T01:28:05.575Z,22.98
2023-04-08T01:28:41.194Z,22.97
2023-04-08T01:29:17.471Z,22.99
2023-04-08T01:29:52.904Z,22.99
2023-04-08T01:30:29.109Z,22.98
2023-04-08T01:31:04.891Z,22.99
2023-04-08T01:31:40.549Z,22.98
2023-04-08T01:32:16.570Z,22.99
2023-04-08T01:32:52.241Z,22.98
2023-04-08T01:33:28.045Z,22.98
2023-04-08T01:34:03.985Z,22.99
2023-04-08T01:34:39.374Z,22.99
2023-04-08T01:35:15.486Z,22.98
2023-04-08T01:35:51.256Z,22.99
2023-04-08T01:36:27.431Z,22.99
2023-04-08T01:37:03.212Z,23.00
2023-04-08T01:37:38.734Z,23.00
2023-04-08T01:38:14.645Z,22.99
2023-04-08T01:38:51.080Z,22.98
2023-04-08T01:39:26.720Z,22.98
2023-04-08T01:40:02.914Z,22.99
2023-04-08T01:40:38.766Z,22.97
2023-04-08T01:41:14.613Z,22.96
2023-04-08T01:41:49.864Z,22.97
2023-04-08T01:42:25.333Z,23.00
2023-04-08T01:43:01.507Z,22.99
2023-04-08T01:43:37.356Z,23.00
2023-04-08T01:44:13.109Z,22.99
2023-04-08T01:44:49.006Z,22.97
2023-04-08T01:45:24.903Z,23.00
2023-04-08T01:46:00.765Z,22.99
2023-04-08T01:46:36.612Z,22.97
2023-04-08T01:47:12.483Z,22.97
2023-04-08T01:47:47.537Z,22.99
2023-04-08T01:48:23.730Z,22.99
2023-04-08T01:48:59.677Z,23.01
2023-04-08T01:49:35.642Z,23.00
2023-04-08T01:50:11.166Z,22.98
2023-04-08T01:50:47.375Z,22.99
2023-04-08T01:51:23.261Z,23.00
2023-04-08T01:51:59.187Z,22.99
2023-04-08T01:52:34.729Z,22.99
2023-04-08T01:53:10.062Z,22.99
2023-04-08T01:53:46.498Z,22.99
2023-04-08T01:54:22.019Z,22.99
2023-04-08T01:54:58.010Z,23.00
2023-04-08T01:55:34.353Z,22.99
2023-04-08T01:56:10.250Z,22.99
2023-04-08T01:56:46.155Z,22.99
2023-04-08T01:57:22.100Z,22.99
2023-04-08T01:57:58.440Z,22.97
2023-04-08T01:58:34.194Z,22.96
2023-04-08T01:59:10.051Z,23.00
2023-04-08T01:59:46.200Z,23.00
2023-04-08T02:00:22.401Z,22.98
2023-04-08T02:00:58.353Z,22.97
2023-04-08T02:01:34.092Z,23.00
2023-04-08T02:02:10.118Z,22.99
2023-04-08T02:02:46.022Z,23.02
2023-04-08T02:03:21.926Z,23.03
2023-04-08T02:03:57.300Z,22.99
2023-04-08T02:04:32.898Z,22.99
2023-04-08T02:05:09.022Z,22.98
2023-04-08T02:05:44.849Z,23.00
2023-04-08T02:06:20.973Z,22.99
2023-04-08T02:06:56.646Z,23.00
2023-04-08T02:07:31.940Z,23.01
2023-04-08T02:08:08.200Z,23.00
2023-04-08T02:08:44.457Z,23.01
2023-04-08T02:09:20.346Z,23.00
2023-04-08T02:09:56.305Z,23.00
2023-04-08T02:10:32.103Z,23.00
2023-04-08T02:11:07.925Z,22.98
2023-04-08T02:11:44.108Z,22.99
2023-04-08T02:12:19.524Z,23.00
2023-04-08T02:12:55.142Z,23.01
2023-04-08T02:13:30.967Z,23.00
2023-04-08T02:14:07.230Z,22.99
2023-04-08T02:14:42.962Z,22.98
2023-04-08T02:15:19.415Z,22.98
2023-04-08T02:15:55.772Z,23.01
2023-04-08T02:16:31.890Z,23.01
2023-04-08T02:17:08.123Z,23.00
2023-04-08T02:17:43.866Z,22.99
2023-04-08T02:18:18.944Z,23.01
2023-04-08T02:18:55.280Z,23.00
2023-04-08T02:19:31.400Z,23.02
2023-04-08T02:20:07.372Z,23.01
2023-04-08T02:20:42.851Z,23.01
2023-04-08T02:21:18.764Z,23.01
2023-04-08T02:21:54.720Z,23.01
2023-04-08T02:22:30.561Z,23.01
2023-04-08T02:23:06.401Z,23.01
2023-04-08T02:23:41.672Z,22.98
2023-04-08T02:24:17.729Z,23.00
2023-04-08T02:24:53.763Z,23.03
2023-04-08T02:25:29.998Z,23.01
2023-04-08T02:26:05.588Z,23.00
2023-04-08T02:26:41.261Z,22.98
2023-04-08T02:27:17.378Z,22.97
2023-04-08T02:27:53.275Z,22.98
2023-04-08T02:28:28.696Z,23.03
2023-04-08T02:29:03.845Z,23.02
2023-04-08T02:29:40.157Z,23.03
2023-04-08T02:30:16.006Z,23.00
2023-04-08T02:30:51.897Z,22.99
2023-04-08T02:31:27.502Z,23.02
2023-04-08T02:32:03.677Z,23.00
2023-04-08T02:32:39.732Z,23.00
2023-04-08T02:33:15.152Z,23.00
2023-04-08T02:33:50.968Z,23.03
2023-04-08T02:34:26.386Z,23.01
2023-04-08T02:35:02.057Z,23.04
2023-04-08T02:35:38.515Z,23.03
2023-04-08T02:36:14.261Z,23.03
2023-04-08T02:36:50.227Z,23.02
2023-04-08T02:37:26.175Z,23.00
2023-04-08T02:38:01.985Z,23.02
2023-04-08T02:38:38.181Z,23.02
2023-04-08T02:39:13.855Z,23.02
2023-04-08T02:39:49.053Z,23.00
2023-04-08T02:40:25.233Z,23.01
2023-04-08T02:41:01.384Z,23.00
2023-04-08T02:41:37.463Z,23.01
2023-04-08T02:42:13.252Z,23.03
2023-04-08T02:42:49.016Z,23.01
2023-04-08T02:43:25.353Z,22.99
2023-04-08T02:44:01.489Z,23.02
2023-04-08T02:44:37.101Z,22.98
2023-04-08T02:45:12.660Z,22.99
2023-04-08T02:45:48.827Z,23.02
2023-04-08T02:46:24.438Z,23.01
2023-04-08T02:47:00.688Z,23.02
2023-04-08T02:47:36.755Z,22.99
2023-04-08T02:48:12.838Z,23.01
2023-04-08T02:48:49.032Z,23.01
2023-04-08T02:49:25.190Z,23.00
2023-04-08T02:50:00.960Z,23.02
2023-04-08T02:50:36.139Z,23.00
2023-04-08T02:51:12.025Z,23.01
2023-04-08T02:51:48.472Z,23.01
2023-04-08T02:52:24.092Z,23.00
2023-04-08T02:53:00.021Z,23.01
2023-04-08T02:53:35.506Z,23.00
2023-04-08T02:54:11.934Z,23.03
2023-04-08T02:54:48.381Z,23.04
2023-04-08T02:55:24.109Z,23.02
2023-04-08T02:55:59.609Z,22.99
2023-04-08T02:56:34.883Z,22.98
2023-04-08T02:57:10.564Z,23.01
2023-04-08T02:57:46.551Z,23.00
2023-04-08T02:58:22.831Z,23.02
2023-04-08T02:58:58.181Z,23.02
2023-04-08T02:59:34.172Z,23.02
2023-04-08T03:00:10.648Z,23.02
2023-04-08T03:00:46.140Z,23.00
2023-04-08T03:01:21.665Z,23.01
2023-04-08T03:01:57.392Z,23.01
2023-04-08T03:02:33.261Z,23.02
2023-04-08T03:03:09.255Z,22.99
2023-04-08T03:03:44.946Z,23.02
2023-04-08T03:04:20.853Z,23.02
2023-04-08T03:04:56.547Z,23.01
2023-04-08T03:05:32.060Z,23.01
2023-04-08T03:06:08.094Z,23.01
2023-04-08T03:06:44.026Z,23.01
2023-04-08T03:07:19.069Z,23.01
2023-04-08T03:07:55.456Z,23.02
2023-04-08T03:08:31.192Z,23.01
2023-04-08T03:09:06.784Z,23.00
2023-04-08T03:09:43.519Z,22.99
2023-04-08T03:10:19.468Z,23.01
2023-04-08T03:10:55.186Z,23.02
2023-04-08T03:11:31.075Z,23.01
2023-04-08T03:12:06.390Z,23.02
2023-04-08T03:12:42.130Z,23.01
2023-04-08T03:13:18.007Z,23.01
2023-04-08T03:13:53.899Z,23.01
2023-04-08T03:14:29.641Z,23.01
2023-04-08T03:15:05.658Z,22.99
2023-04-08T03:15:41.379Z,22.99
2023-04-08T03:16:17.146Z,22.99
2023-04-08T03:16:52.587Z,22.99
2023-04-08T03:17:28.105Z,22.99
2023-04-08T03:18:03.909Z,22.99
2023-04-08T03:18:40.209Z,22.97
2023-04-08T03:19:16.164Z,23.00
2023-04-08T03:19:52.131Z,22.99
2023-04-08T03:20:27.820Z,23.00
2023-04-08T03:21:03.903Z,22.99
2023-04-08T03:21:40.017Z,23.00
2023-04-08T03:22:15.660Z,23.02
2023-04-08T03:22:51.199Z,23.01
2023-04-08T03:23:26.784Z,23.02
2023-04-08T03:24:02.414Z,23.00
2023-04-08T03:24:38.774Z,23.01
2023-04-08T03:25:14.327Z,23.00
2023-04-08T03:25:49.997Z,23.00
2023-04-08T03:26:26.301Z,23.01
2023-04-08T03:27:02.143Z,23.00
2023-04-08T03:27:37.625Z,23.00
2023-04-08T03:28:13.183Z,23.00
2023-04-08T03:28:49.301Z,22.99
2023-04-08T03:29:25.185Z,22.98
2023-04-08T03:30:01.293Z,23.00
2023-04-08T03:30:38.497Z,22.94
2023-04-08T03:31:14.917Z,22.98
2023-04-08T03:31:50.195Z,22.98
2023-04-08T03:32:25.955Z,23.00
2023-04-08T03:33:02.056Z,23.00
2023-04-08T03:33:38.095Z,22.99
2023-04-08T03:34:14.396Z,23.01
2023-04-08T03:34:49.837Z,23.01
2023-04-08T03:35:25.839Z,22.99
2023-04-08T03:36:01.618Z,23.00
2023-04-08T03:36:37.347Z,23.02
2023-04-08T03:37:12.932Z,22.99
2023-04-08T03:37:49.006Z,23.03
2023-04-08T03:38:24.797Z,23.03
2023-04-08T03:39:01.027Z,23.01
2023-04-08T03:39:36.578Z,23.00
2023-04-08T03:40:13.053Z,23.01
2023-04-08T03:40:49.096Z,23.02
2023-04-08T03:41:24.931Z,23.01
2023-04-08T03:42:01.030Z,23.03
2023-04-08T03:42:36.702Z,23.04
2023-04-08T03:43:12.752Z,23.03
2023-04-08T03:43:48.327Z,23.02
2023-04-08T03:44:24.485Z,23.02
2023-04-08T03:45:00.547Z,22.99
2023-04-08T03:45:38.746Z,23.02
2023-04-08T03:46:14.658Z,23.02
2023-04-08T03:46:50.904Z,23.01
2023-04-08T03:47:26.455Z,23.03
2023-04-08T03:48:01.694Z,23.02
2023-04-08T03:48:37.434Z,23.03
2023-04-08T03:49:13.823Z,22.99
2023-04-08T03:49:49.986Z,22.99
2023-04-08T03:50:25.971Z,23.00
2023-04-08T03:51:01.465Z,23.00
2023-04-08T03:51:37.043Z,22.98
2023-04-08T03:52:13.153Z,22.98
2023-04-08T03:52:48.611Z,22.99
2023-04-08T03:53:24.668Z,23.02
2023-04-08T03:54:00.731Z,22.99
2023-04-08T03:54:36.577Z,22.97
2023-04-08T03:55:12.697Z,22.96
2023-04-08T03:55:48.546Z,22.97
2023-04-08T03:56:24.658Z,22.98
2023-04-08T03:57:00.351Z,22.97
2023-04-08T03:57:35.699Z,22.98
2023-04-08T03:58:12.060Z,23.00
2023-04-08T03:58:48.478Z,22.97
2023-04-08T03:59:24.628Z,23.00
2023-04-08T04:00:00.241Z,22.99
2023-04-08T04:00:42.268Z,22.99
2023-04-08T04:01:18.363Z,22.94
2023-04-08T04:01:53.764Z,22.98
2023-04-08T04:02:28.762Z,22.97
2023-04-08T04:03:04.617Z,23.00
2023-04-08T04:03:40.554Z,23.00
2023-04-08T04:04:16.893Z,22.98
2023-04-08T04:04:53.186Z,22.96
2023-04-08T04:05:28.658Z,23.00
2023-04-08T04:06:04.646Z,22.98
2023-04-08T04:06:40.986Z,23.00
2023-04-08T04:07:16.272Z,23.00
2023-04-08T04:07:51.652Z,23.02
2023-04-08T04:08:27.160Z,23.01
2023-04-08T04:09:03.512Z,22.98
2023-04-08T04:09:39.074Z,22.98
2023-04-08T04:10:15.332Z,23.00
2023-04-08T04:10:51.326Z,23.02
2023-04-08T04:11:27.551Z,22.98
2023-04-08T04:12:03.063Z,22.99
2023-04-08T04:12:38.956Z,23.00
2023-04-08T04:13:14.288Z,22.99
2023-04-08T04:13:49.910Z,22.97
2023-04-08T04:14:26.167Z,22.98
2023-04-08T04:15:02.733Z,22.98
2023-04-08T04:15:38.960Z,22.99
2023-04-08T04:16:14.695Z,23.03
2023-04-08T04:16:50.673Z,23.01
2023-04-08T04:17:26.791Z,22.99
2023-04-08T04:18:02.564Z,22.98
2023-04-08T04:18:37.612Z,22.99
2023-04-08T04:19:13.945Z,23.01
2023-04-08T04:19:49.772Z,23.00
2023-04-08T04:20:25.533Z,22.99
2023-04-08T04:21:01.757Z,22.97
2023-04-08T04:21:37.432Z,22.98
2023-04-08T04:22:13.655Z,22.99
2023-04-08T04:22:49.845Z,22.99
2023-04-08T04:23:25.791Z,23.00
2023-04-08T04:24:01.157Z,23.03
2023-04-08T04:24:36.943Z,23.01
2023-04-08T04:25:12.636Z,23.02
2023-04-08T04:25:49.260Z,23.02
2023-04-08T04:26:25.575Z,23.03
2023-04-08T04:27:01.469Z,23.03
2023-04-08T04:27:37.032Z,23.02
2023-04-08T04:28:12.505Z,23.01
2023-04-08T04:28:48.636Z,23.03
2023-04-08T04:29:24.549Z,23.02
2023-04-08T04:30:00.593Z,23.01
2023-04-08T04:30:36.745Z,23.01
2023-04-08T04:31:12.717Z,23.01
2023-04-08T04:31:48.707Z,23.01
2023-04-08T04:32:24.096Z,23.01
2023-04-08T04:32:59.759Z,23.00
2023-04-08T04:33:35.742Z,23.02
2023-04-08T04:34:11.071Z,22.99
2023-04-08T04:34:47.400Z,22.98
2023-04-08T04:35:23.404Z,22.96
2023-04-08T04:35:58.976Z,22.99
2023-04-08T04:36:34.671Z,23.01
2023-04-08T04:37:10.555Z,22.99
2023-04-08T04:37:46.204Z,23.01
2023-04-08T04:38:21.890Z,22.99
2023-04-08T04:38:58.571Z,22.99
2023-04-08T04:39:34.360Z,22.97
2023-04-08T04:40:10.359Z,23.01
2023-04-08T04:40:46.363Z,23.00
2023-04-08T04:41:22.310Z,23.00
2023-04-08T04:41:58.190Z,23.02
2023-04-08T04:42:34.263Z,23.00
2023-04-08T04:43:09.482Z,23.00
2023-04-08T04:43:45.870Z,22.98
2023-04-08T04:44:21.692Z,22.99
2023-04-08T04:44:58.328Z,22.99
2023-04-08T04:45:34.548Z,22.98
2023-04-08T04:46:10.822Z,22.99
2023-04-08T04:46:46.881Z,23.00
2023-04-08T04:47:22.762Z,22.98
2023-04-08T04:47:57.902Z,22.99
2023-04-08T04:48:33.431Z,22.99
2023-04-08T04:49:09.414Z,23.00
2023-04-08T04:49:45.389Z,23.01
2023-04-08T04:50:21.018Z,23.02
2023-04-08T04:50:57.576Z,23.00
2023-04-08T04:51:33.791Z,23.02
2023-04-08T04:52:09.306Z,23.00
2023-04-08T04:52:45.320Z,23.01
2023-04-08T04:53:21.078Z,22.99
2023-04-08T04:53:56.917Z,22.98
2023-04-08T04:54:32.444Z,23.00
2023-04-08T04:55:08.542Z,23.00
2023-04-08T04:55:44.122Z,23.02
2023-04-08T04:56:20.332Z,23.02
2023-04-08T04:56:56.095Z,23.01
2023-04-08T04:57:32.063Z,22.97
2023-04-08T04:58:08.201Z,22.99
2023-04-08T04:58:43.910Z,22.99
2023-04-08T04:59:19.799Z,23.00
2023-04-08T04:59:56.338Z,22.98
2023-04-08T05:00:32.879Z,22.96
2023-04-08T05:01:08.751Z,22.97
2023-04-08T05:01:44.983Z,22.97
2023-04-08T05:02:20.820Z,22.97
2023-04-08T05:02:57.145Z,22.97
2023-04-08T05:03:32.914Z,22.96
2023-04-08T05:04:08.504Z,23.00
2023-04-08T05:04:43.901Z,22.97
2023-04-08T05:05:19.891Z,22.98
2023-04-08T05:05:56.171Z,22.99
2023-04-08T05:06:31.928Z,23.01
2023-04-08T05:07:08.428Z,23.01
2023-04-08T05:07:44.138Z,23.00
2023-04-08T05:08:20.610Z,22.99
2023-04-08T05:08:56.694Z,22.95
2023-04-08T05:09:31.994Z,22.96
2023-04-08T05:10:07.494Z,22.97
2023-04-08T05:10:43.622Z,22.93
2023-04-08T05:11:20.350Z,22.96
2023-04-08T05:11:56.331Z,22.98
2023-04-08T05:12:31.867Z,22.97
2023-04-08T05:13:08.134Z,22.97
2023-04-08T05:13:44.240Z,22.99
2023-04-08T05:14:20.678Z,23.00
2023-04-08T05:14:56.325Z,23.01
2023-04-08T05:15:31.715Z,23.01
2023-04-08T05:16:07.762Z,23.00
2023-04-08T05:16:43.695Z,23.00
2023-04-08T05:17:19.881Z,22.99
2023-04-08T05:17:55.407Z,22.99
2023-04-08T05:18:31.462Z,23.00
2023-04-08T05:19:07.529Z,23.01
2023-04-08T05:19:42.918Z,23.00
2023-04-08T05:20:18.762Z,23.00
2023-04-08T05:20:54.449Z,23.02
2023-04-08T05:21:30.367Z,23.03
2023-04-08T05:22:06.388Z,23.02
2023-04-08T05:22:41.682Z,23.01
2023-04-08T05:23:17.962Z,22.99
2023-04-08T05:23:53.568Z,23.01
2023-04-08T05:24:29.258Z,23.01
2023-04-08T05:25:05.859Z,23.01
2023-04-08T05:25:41.493Z,23.00
2023-04-08T05:26:17.865Z,22.94
2023-04-08T05:26:54.620Z,22.95
2023-04-08T05:27:30.134Z,22.99
2023-04-08T05:28:06.227Z,22.98
2023-04-08T05:28:41.944Z,22.98
2023-04-08T05:29:18.025Z,22.97
2023-04-08T05:29:53.686Z,22.98
2023-04-08T05:30:30.063Z,22.96
2023-04-08T05:31:06.043Z,22.94
2023-04-08T05:31:41.417Z,22.94
2023-04-08T05:32:17.298Z,22.94
2023-04-08T05:32:53.010Z,22.95
2023-04-08T05:33:29.415Z,22.96
2023-04-08T05:34:05.352Z,22.97
2023-04-08T05:34:41.361Z,22.99
2023-04-08T05:35:17.189Z,22.97
2023-04-08T05:35:52.927Z,22.98
2023-04-08T05:36:28.799Z,22.99
2023-04-08T05:37:04.512Z,22.99
2023-04-08T05:37:40.603Z,22.99
2023-04-08T05:38:16.168Z,22.99
2023-04-08T05:38:52.787Z,23.00
2023-04-08T05:39:28.751Z,23.00
2023-04-08T05:40:04.564Z,22.98
2023-04-08T05:40:40.875Z,22.98
2023-04-08T05:41:16.679Z,22.99
2023-04-08T05:41:52.698Z,23.01
2023-04-08T05:42:27.953Z,22.99
2023-04-08T05:43:03.837Z,22.98
2023-04-08T05:43:40.167Z,22.99
2023-04-08T05:44:15.654Z,22.94
2023-04-08T05:44:51.981Z,22.97
2023-04-08T05:45:28.115Z,23.00
2023-04-08T05:46:04.440Z,23.01
2023-04-08T05:46:39.848Z,23.00
2023-04-08T05:47:15.737Z,23.00
2023-04-08T05:47:51.658Z,22.99
2023-04-08T05:48:27.512Z,22.98
2023-04-08T05:49:03.361Z,22.98
2023-04-08T05:49:39.114Z,22.99
2023-04-08T05:50:15.508Z,22.98
2023-04-08T05:50:51.731Z,22.97
2023-04-08T05:51:28.260Z,22.99
2023-04-08T05:52:04.397Z,22.99
2023-04-08T05:52:40.096Z,22.99
2023-04-08T05:53:15.646Z,22.99
2023-04-08T05:53:51.887Z,23.01
2023-04-08T05:54:27.732Z,23.00
2023-04-08T05:55:04.168Z,23.00
2023-04-08T05:55:40.008Z,22.98
2023-04-08T05:56:15.960Z,22.97
2023-04-08T05:56:51.978Z,23.01
2023-04-08T05:57:28.160Z,22.99
2023-04-08T05:58:03.467Z,23.00
2023-04-08T05:58:39.169Z,22.99
2023-04-08T05:59:14.928Z,23.00
2023-04-08T05:59:51.357Z,23.01
2023-04-08T06:00:26.974Z,23.01
2023-04-08T06:01:03.081Z,23.01
2023-04-08T06:01:39.063Z,22.98
2023-04-08T06:02:14.946Z,22.98
2023-04-08T06:02:51.047Z,22.99
2023-04-08T06:03:26.332Z,23.00
2023-04-08T06:04:02.467Z,23.02
2023-04-08T06:04:37.965Z,23.00
2023-04-08T06:05:14.281Z,22.99
2023-04-08T06:05:50.388Z,22.99
2023-04-08T06:06:26.071Z,23.00
2023-04-08T06:07:02.642Z,23.00
2023-04-08T06:07:38.513Z,23.01
2023-04-08T06:08:13.841Z,23.00
2023-04-08T06:08:49.936Z,22.98
2023-04-08T06:09:25.880Z,23.00
2023-04-08T06:10:02.290Z,23.00
2023-04-08T06:10:38.171Z,23.02
2023-04-08T06:11:14.139Z,23.01
2023-04-08T06:11:49.918Z,23.03
2023-04-08T06:12:26.339Z,23.03
2023-04-08T06:13:01.587Z,22.95
2023-04-08T06:13:37.511Z,23.00
2023-04-08T06:14:12.454Z,22.98
2023-04-08T06:14:48.876Z,22.96
2023-04-08T06:15:25.517Z,22.95
2023-04-08T06:16:01.012Z,22.98
2023-04-08T06:16:37.347Z,22.94
2023-04-08T06:17:13.241Z,22.93
2023-04-08T06:17:49.352Z,22.94
2023-04-08T06:18:26.298Z,22.97
2023-04-08T06:19:02.078Z,23.00
2023-04-08T06:19:37.549Z,23.00
2023-04-08T06:20:13.114Z,22.99
2023-04-08T06:20:49.383Z,22.98
2023-04-08T06:21:25.534Z,22.99
2023-04-08T06:22:01.509Z,23.00
2023-04-08T06:22:37.419Z,23.01
2023-04-08T06:23:13.443Z,23.02
2023-04-08T06:23:49.120Z,23.01
2023-04-08T06:24:25.040Z,23.01
2023-04-08T06:25:00.527Z,23.00
2023-04-08T06:25:36.609Z,23.01
2023-04-08T06:26:12.814Z,23.00
2023-04-08T06:26:48.264Z,23.01
2023-04-08T06:27:24.780Z,23.00
2023-04-08T06:28:00.428Z,23.01
2023-04-08T06:28:35.589Z,23.00
2023-04-08T06:29:11.784Z,23.02
2023-04-08T06:29:47.914Z,23.03
2023-04-08T06:30:23.592Z,23.02
2023-04-08T06:31:00.054Z,22.98
2023-04-08T06:31:36.713Z,22.99
2023-04-08T06:32:12.771Z,22.98
2023-04-08T06:32:48.459Z,22.99
2023-04-08T06:33:23.844Z,23.02
2023-04-08T06:34:00.325Z,23.00
2023-04-08T06:34:35.789Z,22.98
2023-04-08T06:35:11.750Z,22.97
2023-04-08T06:35:47.869Z,22.99
2023-04-08T06:36:24.142Z,23.00
2023-04-08T06:36:59.633Z,22.98
2023-04-08T06:37:35.413Z,22.98
2023-04-08T06:38:08.615Z,22.97
2023-04-08T06:38:41.712Z,23.01
2023-04-08T06:39:17.693Z,23.01
2023-04-08T06:39:53.562Z,22.99
2023-04-08T06:40:29.934Z,22.99
2023-04-08T06:41:06.013Z,22.97
2023-04-08T06:41:41.487Z,22.96
2023-04-08T06:42:17.984Z,22.99
2023-04-08T06:42:53.963Z,23.00
2023-04-08T06:43:29.448Z,22.99
2023-04-08T06:44:05.807Z,23.03
2023-04-08T06:44:41.698Z,23.01
2023-04-08T06:45:17.192Z,22.99
2023-04-08T06:45:53.871Z,23.00
2023-04-08T06:46:29.621Z,23.00
2023-04-08T06:47:05.662Z,23.00
2023-04-08T06:47:41.288Z,23.03
2023-04-08T06:48:16.732Z,23.03
2023-04-08T06:48:52.598Z,23.03
2023-04-08T06:49:28.689Z,23.01
2023-04-08T06:50:04.968Z,23.01
2023-04-08T06:50:40.867Z,22.99
2023-04-08T06:51:16.748Z,22.98
2023-04-08T06:51:52.675Z,22.99
2023-04-08T06:52:28.731Z,23.01
2023-04-08T06:53:04.941Z,23.03
2023-04-08T06:53:40.504Z,23.02
2023-04-08T06:54:15.751Z,22.98
2023-04-08T06:54:52.052Z,22.99
2023-04-08T06:55:28.403Z,23.01
2023-04-08T06:56:04.011Z,23.02
2023-04-08T06:56:40.203Z,23.03
2023-04-08T06:57:16.145Z,23.00
2023-04-08T06:57:52.295Z,22.99
2023-04-08T06:58:29.047Z,23.00
2023-04-08T06:59:05.615Z,22.99
2023-04-08T06:59:40.938Z,23.00
2023-04-08T07:00:16.515Z,23.01
2023-04-08T07:00:52.458Z,22.98
2023-04-08T07:01:29.027Z,23.00
2023-04-08T07:02:04.637Z,22.98
2023-04-08T07:02:40.250Z,23.00
2023-04-08T07:03:15.528Z,23.02
2023-04-08T07:03:51.454Z,23.00
2023-04-08T07:04:27.663Z,22.98
2023-04-08T07:05:04.419Z,23.00
2023-04-08T07:05:40.747Z,23.02
2023-04-08T07:06:16.402Z,23.02
2023-04-08T07:06:52.971Z,23.01
2023-04-08T07:07:28.582Z,23.00
2023-04-08T07:08:03.882Z,23.00
2023-04-08T07:08:40.175Z,23.00
2023-04-08T07:09:15.721Z,23.03
2023-04-08T07:09:52.554Z,23.03
2023-04-08T07:10:28.711Z,23.00
2023-04-08T07:11:04.664Z,23.00
2023-04-08T07:11:41.038Z,22.98
2023-04-08T07:12:17.036Z,23.01
2023-04-08T07:12:52.461Z,23.01
2023-04-08T07:13:28.434Z,23.01
2023-04-08T07:14:04.279Z,23.02
2023-04-08T07:14:40.528Z,23.00
2023-04-08T07:15:16.369Z,23.00
2023-04-08T07:15:51.843Z,23.00
2023-04-08T07:16:28.137Z,22.97
2023-04-08T07:17:03.969Z,22.97
2023-04-08T07:17:39.623Z,22.98
2023-04-08T07:18:14.420Z,23.02
2023-04-08T07:18:50.640Z,23.01
2023-04-08T07:19:26.804Z,22.98
2023-04-08T07:20:02.971Z,23.02
2023-04-08T07:20:38.461Z,23.02
2023-04-08T07:21:14.862Z,23.04
2023-04-08T07:21:50.583Z,23.04
2023-04-08T07:22:26.582Z,23.04
2023-04-08T07:23:02.547Z,23.05
2023-04-08T07:23:37.530Z,23.05
2023-04-08T07:24:13.595Z,23.04
2023-04-08T07:24:50.190Z,23.03
2023-04-08T07:25:26.051Z,23.05
2023-04-08T07:26:02.567Z,23.03
2023-04-08T07:26:38.432Z,23.03
2023-04-08T07:27:13.906Z,23.02
2023-04-08T07:27:50.713Z,23.01
2023-04-08T07:28:26.472Z,23.01
2023-04-08T07:29:01.900Z,23.01
2023-04-08T07:29:38.249Z,23.02
2023-04-08T07:30:14.356Z,23.00
2023-04-08T07:30:50.253Z,23.02
2023-04-08T07:31:26.175Z,23.02
2023-04-08T07:32:02.055Z,23.02
2023-04-08T07:32:37.693Z,23.04
2023-04-08T07:33:13.930Z,22.98
2023-04-08T07:33:49.059Z,22.99
2023-04-08T07:34:24.747Z,22.99
2023-04-08T07:35:00.649Z,23.02
2023-04-08T07:35:36.559Z,22.98
2023-04-08T07:36:12.937Z,23.02
2023-04-08T07:36:49.184Z,23.01
2023-04-08T07:37:25.415Z,23.00
2023-04-08T07:38:01.355Z,23.01
2023-04-08T07:38:37.212Z,23.00
2023-04-08T07:39:12.586Z,23.02
2023-04-08T07:39:48.062Z,23.02
2023-04-08T07:40:24.269Z,23.01
2023-04-08T07:40:59.964Z,22.99
2023-04-08T07:41:36.421Z,23.01
2023-04-08T07:42:12.240Z,23.01